Pleasant Ridge, Illinois
Current Conditions -  °F | °C
As of 10:15 AM on Monday 22 Dec 2014 (Local Time) from KPNT Reporting Station
Unknown Precip Unknown Precip  
Wind Chill: 26°   Ceiling: 1700
Heat Index: 34°   Visibility: 3mi
Dew Point: 33°   Wind: 10mph
Humidity: 95%   Direction: 110°ESE
Pressure: 29.84"   Gusts: NA
Location:  40.7521°N, 88.412°W
Report Text: KPNT 221615Z AUTO 11009KT 3SM UP BKN017 OVC023 01/01 A2984 RMK AO2 P0001 T00130006
Loading
Personal Weather Stations






























Interactive Weather Map New forecast layout! Learn more

10-Day Weather Forecast

Advertisements
Track Severe Weather on mobile